Terminal Aerodrome Forecast
Issued by NWS North Platte, NE

Home | Current Version | Previous Version | Text Only | Print | Product List | Glossary Off
Versions: 1 2 3 4 5 6 7 8 9 10 11 12 13 14

988
FTUS43 KLBF 201720
TAFVTN
TAF
KVTN 201720Z 2018/2118 VRB06KT P6SM SCT150
     FM202100 11012KT P6SM SCT100 OVC250
     FM210100 13006KT P6SM SCT100 BKN250
     FM210900 VRB05KT P6SM BKN250
     FM211600 30006KT P6SM BKN150=

USA.gov is the U.S. government's official web portal to all federal, state and local government web resources and services.